createdAt,value
2022-08-22T00:03:03.717Z,18.30657
2022-08-22T00:08:15.738Z,16.95745
2022-08-22T00:13:16.671Z,16.91868
2022-08-22T00:18:17.632Z,16.87184
2022-08-22T00:23:18.555Z,16.78267
2022-08-22T00:28:19.499Z,16.74423
2022-08-22T00:33:20.397Z,16.67961
2022-08-22T00:38:21.402Z,16.62566
2022-08-22T00:43:22.296Z,16.62211
2022-08-22T00:48:23.193Z,16.55911
2022-08-22T00:53:24.411Z,16.47059
2022-08-22T00:58:25.339Z,16.42472
2022-08-22T01:03:26.793Z,16.38918
2022-08-22T01:08:27.733Z,16.39564
2022-08-22T01:13:28.657Z,16.29517
2022-08-22T01:18:29.584Z,16.28839
2022-08-22T01:23:30.502Z,16.25317
2022-08-22T01:28:31.506Z,16.25511
2022-08-22T01:33:32.430Z,16.21505
2022-08-22T01:38:33.426Z,16.19438
2022-08-22T01:43:59.684Z,16.19599
2022-08-22T01:49:01.848Z,16.16562
2022-08-22T01:54:02.742Z,16.14333
2022-08-22T01:59:03.640Z,16.06677
2022-08-22T02:04:04.724Z,16.02154
2022-08-22T02:09:05.651Z,15.99246
2022-08-22T02:14:06.552Z,15.95305
2022-08-22T02:19:07.466Z,15.92979
2022-08-22T02:24:10.002Z,15.91654
2022-08-22T02:29:11.026Z,15.92494
2022-08-22T02:34:11.927Z,15.88359
2022-08-22T02:39:12.897Z,15.85484
2022-08-22T02:44:13.835Z,15.81833
2022-08-22T02:49:14.791Z,16.01572
2022-08-22T02:54:15.759Z,16.03543
2022-08-22T02:59:17.799Z,16.06192
2022-08-22T03:04:18.711Z,16.25963
2022-08-22T03:09:19.660Z,16.09003
2022-08-22T03:14:21.054Z,15.96985
2022-08-22T03:19:22.084Z,15.87778
2022-08-22T03:24:23.015Z,15.82479
2022-08-22T03:29:23.916Z,15.79895
2022-08-22T03:34:24.832Z,15.77795
2022-08-22T03:39:25.900Z,15.74338
2022-08-22T03:44:26.976Z,15.70914
2022-08-22T03:49:27.903Z,15.67554
2022-08-22T03:54:30.479Z,15.70494
2022-08-22T03:59:31.621Z,15.73111
2022-08-22T04:04:32.512Z,15.76309
2022-08-22T04:09:33.466Z,15.86195
2022-08-22T04:14:34.364Z,15.93237
2022-08-22T04:19:35.351Z,15.97179
2022-08-22T04:24:36.281Z,15.84935
2022-08-22T04:29:37.185Z,15.86938
2022-08-22T04:34:38.095Z,15.94465
2022-08-22T04:39:39.273Z,16.04318
2022-08-22T04:44:41.416Z,16.3488
2022-08-22T04:49:42.437Z,16.23896
2022-08-22T04:54:43.398Z,16.23023
2022-08-22T04:59:54.627Z,16.17984
2022-08-22T05:04:55.542Z,16.20471
2022-08-22T05:09:56.551Z,16.30454
2022-08-22T05:14:57.441Z,16.32425
2022-08-22T05:19:59.372Z,16.36786
2022-08-22T05:25:00.272Z,16.47512
2022-08-22T05:30:01.307Z,16.60466
2022-08-22T05:35:02.333Z,16.67897
2022-08-22T05:40:03.281Z,16.78784
2022-08-22T05:45:04.240Z,16.90737
2022-08-22T05:50:05.143Z,17.04371
2022-08-22T05:55:06.045Z,17.19555
2022-08-22T06:00:07.453Z,17.42557
2022-08-22T06:05:11.834Z,17.93149
2022-08-22T06:10:13.188Z,18.12469
2022-08-22T06:15:14.102Z,18.61446
2022-08-22T06:20:15.047Z,18.65096
2022-08-22T06:25:15.982Z,18.77632
2022-08-22T06:30:16.859Z,18.86516
2022-08-22T06:35:17.758Z,19.23701
2022-08-22T06:40:18.797Z,19.38466
2022-08-22T06:45:19.746Z,19.64764
2022-08-22T06:50:22.371Z,19.90061
2022-08-22T06:55:23.280Z,19.79205
2022-08-22T07:00:24.211Z,19.74747
2022-08-22T07:05:25.129Z,19.98881
2022-08-22T07:10:26.340Z,20.02661
2022-08-22T07:15:27.357Z,20.06537
2022-08-22T07:20:28.260Z,20.18427
2022-08-22T07:25:29.158Z,20.48763
2022-08-22T07:30:30.111Z,20.43142
2022-08-22T07:35:31.013Z,20.44014
2022-08-22T07:40:31.929Z,20.54288
2022-08-22T07:45:32.830Z,20.79068
2022-08-22T07:50:33.747Z,20.89988
2022-08-22T07:55:34.655Z,21.00811
2022-08-22T08:00:49.327Z,21.39548
2022-08-22T08:05:50.261Z,21.57576
2022-08-22T08:10:51.197Z,21.80159
2022-08-22T08:15:52.097Z,21.90143
2022-08-22T08:20:53.027Z,21.92501
2022-08-22T08:25:53.958Z,21.9444
2022-08-22T08:30:54.909Z,21.99544
2022-08-22T08:36:02.746Z,22.1964
2022-08-22T08:41:05.062Z,22.35277
2022-08-22T08:46:05.973Z,22.46391
2022-08-22T08:51:07.120Z,22.51302
2022-08-22T08:56:10.847Z,22.73046
2022-08-22T09:01:11.992Z,22.95274
2022-08-22T09:06:12.968Z,23.2041
2022-08-22T09:11:15.779Z,23.17082
2022-08-22T09:16:17.271Z,23.30716
2022-08-22T09:21:30.800Z,23.53365
2022-08-22T09:26:32.565Z,23.56046
2022-08-22T09:31:47.519Z,23.73396
2022-08-22T09:36:48.735Z,23.62476
2022-08-22T09:41:51.745Z,23.87806
2022-08-22T09:46:53.890Z,24.55848
2022-08-22T09:51:57.290Z,24.95524
2022-08-22T09:56:58.212Z,25.23504
2022-08-22T10:01:59.107Z,25.19917
2022-08-22T10:07:00.007Z,25.11129
2022-08-22T10:12:01.266Z,25.14813
2022-08-22T10:17:02.588Z,25.33552
2022-08-22T10:22:03.523Z,25.51807
2022-08-22T10:27:04.451Z,25.53778
2022-08-22T10:32:14.410Z,25.76006
2022-08-22T10:37:15.773Z,26.60076
2022-08-22T10:42:18.618Z,27.98298
2022-08-22T10:47:19.655Z,27.4434
2022-08-22T10:52:20.597Z,26.94098
2022-08-22T10:57:21.635Z,26.50674
2022-08-22T11:02:23.465Z,26.25182
2022-08-22T11:07:25.377Z,26.03728
2022-08-22T11:12:26.650Z,25.82048
2022-08-22T11:17:40.608Z,25.8431
2022-08-22T11:22:43.719Z,25.70482
2022-08-22T11:27:47.976Z,25.64795
2022-08-22T11:32:56.137Z,25.65344
2022-08-22T11:38:00.828Z,25.88219
2022-08-22T11:43:04.200Z,25.74973
2022-08-22T11:48:05.375Z,25.86669
2022-08-22T11:53:07.614Z,25.5885
2022-08-22T11:58:08.877Z,25.41242
2022-08-22T12:03:10.202Z,25.33778
2022-08-22T12:08:11.321Z,25.51419
2022-08-22T12:13:12.396Z,25.62727
2022-08-22T12:18:21.160Z,25.79657
2022-08-22T12:23:22.574Z,26.35908
2022-08-22T12:28:44.566Z,26.64309
2022-08-22T12:33:45.484Z,27.04179
2022-08-22T12:38:49.341Z,27.06118
2022-08-22T12:43:50.467Z,27.53872
2022-08-22T12:48:51.377Z,27.83436
2022-08-22T12:53:52.424Z,27.79785
2022-08-22T12:58:53.776Z,27.8489
2022-08-22T13:03:56.687Z,28.20075
2022-08-22T13:08:57.588Z,28.02951
2022-08-22T13:13:58.554Z,28.25859
2022-08-22T13:19:00.461Z,28.28928
2022-08-22T13:24:10.454Z,27.87119
2022-08-22T13:29:26.100Z,27.7623
2022-08-22T13:34:27.981Z,27.31901
2022-08-22T13:39:28.878Z,27.26376
2022-08-22T13:44:29.865Z,27.0783
2022-08-22T13:49:31.459Z,26.89801
2022-08-22T13:54:35.317Z,26.74325
2022-08-22T13:59:50.953Z,26.64309
2022-08-22T14:04:53.545Z,26.55359
2022-08-22T14:09:54.666Z,26.58558
2022-08-22T14:14:55.709Z,26.48218
2022-08-22T14:19:59.722Z,26.37072
2022-08-22T14:25:02.550Z,26.32161
2022-08-22T14:30:03.530Z,26.30287
2022-08-22T14:35:04.930Z,26.28122
2022-08-22T14:40:11.716Z,26.13938
2022-08-22T14:45:12.793Z,26.01143
2022-08-22T14:50:13.818Z,25.99075
2022-08-22T14:55:20.059Z,25.9914
2022-08-22T15:00:21.092Z,25.92937
2022-08-22T15:05:22.143Z,25.8977
2022-08-22T15:10:23.182Z,26.08445
2022-08-22T15:15:24.175Z,26.32581
2022-08-22T15:20:27.914Z,26.28833
2022-08-22T15:25:29.305Z,26.12775
2022-08-22T15:30:30.289Z,26.01725
2022-08-22T15:35:38.965Z,25.82985
2022-08-22T15:40:40.342Z,25.80982
2022-08-22T15:45:41.771Z,25.70675
2022-08-22T15:50:42.745Z,25.71709
2022-08-22T15:55:43.675Z,25.70094
2022-08-22T16:00:45.360Z,25.57267
2022-08-22T16:05:46.439Z,25.36686
2022-08-22T16:10:47.410Z,25.04344
2022-08-22T16:15:52.683Z,24.93327
2022-08-22T16:20:55.246Z,24.7798
2022-08-22T16:25:56.193Z,24.6987
2022-08-22T16:30:57.178Z,24.61309
2022-08-22T16:35:58.074Z,24.40082
2022-08-22T16:40:58.995Z,24.17595
2022-08-22T16:45:59.989Z,24.09291
2022-08-22T16:51:00.857Z,23.93912
2022-08-22T16:56:01.913Z,23.77208
2022-08-22T17:01:03.091Z,23.56499
2022-08-22T17:06:04.029Z,23.46289
2022-08-22T17:11:05.087Z,23.3973
2022-08-22T17:16:06.001Z,23.32396
2022-08-22T17:21:06.950Z,23.13237
2022-08-22T17:26:07.889Z,23.40958
2022-08-22T17:31:08.821Z,23.6519
2022-08-22T17:36:26.686Z,23.38761
2022-08-22T17:41:28.376Z,23.02705
2022-08-22T17:46:29.280Z,22.7479
2022-08-22T17:51:30.219Z,22.50494
2022-08-22T17:56:31.174Z,22.35374
2022-08-22T18:01:32.164Z,22.31982
2022-08-22T18:06:33.160Z,22.26522
2022-08-22T18:11:38.954Z,22.24066
2022-08-22T18:16:41.415Z,22.12564
2022-08-22T18:21:42.323Z,22.06264
2022-08-22T18:26:43.743Z,22.02452
2022-08-22T18:31:45.108Z,22.21029
2022-08-22T18:36:46.420Z,22.13211
2022-08-22T18:41:47.853Z,21.93244
2022-08-22T18:46:51.682Z,21.95893
2022-08-22T18:51:53.229Z,21.77801
2022-08-22T18:56:54.207Z,21.54345
2022-08-22T19:01:55.115Z,21.39064
2022-08-22T19:06:56.024Z,21.27045
2022-08-22T19:11:56.960Z,21.34024
2022-08-22T19:16:57.927Z,21.24493
2022-08-22T19:21:58.812Z,21.29307
2022-08-22T19:26:59.746Z,21.29985
2022-08-22T19:32:00.883Z,21.22037
2022-08-22T19:37:01.952Z,21.18677
2022-08-22T19:42:02.953Z,21.10762
2022-08-22T19:47:03.891Z,21.05302
2022-08-22T19:52:04.914Z,21.04494
2022-08-22T19:57:05.795Z,21.0149
2022-08-22T20:02:06.845Z,20.96546
2022-08-22T20:07:14.419Z,21.17805
2022-08-22T20:17:21.363Z,21.4559
2022-08-22T20:22:22.320Z,21.16674
2022-08-22T20:27:23.200Z,20.97386
2022-08-22T20:32:24.122Z,20.86079
2022-08-22T20:37:35.856Z,20.77905
2022-08-22T20:42:46.208Z,20.71056
2022-08-22T20:47:49.795Z,20.62591
2022-08-22T20:52:54.305Z,20.57454
2022-08-22T20:57:55.578Z,20.77097
2022-08-22T21:02:56.499Z,20.80069
2022-08-22T21:07:57.387Z,20.65434
2022-08-22T21:12:58.286Z,20.52317
2022-08-22T21:17:59.421Z,20.4185
2022-08-22T21:23:00.436Z,20.45565
2022-08-22T21:28:04.512Z,20.47406
2022-08-22T21:33:05.463Z,20.66953
2022-08-22T21:38:06.355Z,20.47245
2022-08-22T21:43:07.284Z,20.31802
2022-08-22T21:48:08.232Z,20.4647
2022-08-22T21:53:10.316Z,20.51768
2022-08-22T21:58:12.889Z,20.30316
2022-08-22T22:03:35.976Z,20.16327
2022-08-22T22:08:36.872Z,20.13193
2022-08-22T22:13:37.780Z,20.08573
2022-08-22T22:18:38.758Z,20.01433
2022-08-22T22:23:39.706Z,20.04664
2022-08-22T22:28:40.622Z,19.98364
2022-08-22T22:33:41.521Z,19.87153
2022-08-22T22:38:42.409Z,19.83631
2022-08-22T22:43:43.332Z,19.90836
2022-08-22T22:48:44.385Z,19.97782
2022-08-22T22:53:45.267Z,19.82178
2022-08-22T22:58:47.497Z,19.91127
2022-08-22T23:03:48.485Z,19.69384
2022-08-22T23:08:49.464Z,19.59175
2022-08-22T23:13:50.415Z,19.49192
2022-08-22T23:18:51.363Z,19.53004
2022-08-22T23:23:52.295Z,19.82081
2022-08-22T23:28:53.334Z,19.89705
2022-08-22T23:33:54.223Z,19.74908
2022-08-22T23:38:55.130Z,19.65022
2022-08-22T23:43:56.043Z,19.54652
2022-08-22T23:48:57.083Z,19.54006
2022-08-22T23:53:58.011Z,19.53489
2022-08-22T23:58:58.935Z,19.58141
